createdAt,value
2019-05-31T00:01:01.382Z,14.62
2019-05-31T00:04:09.008Z,14.61
2019-05-31T00:07:16.259Z,14.62
2019-05-31T00:10:36.439Z,14.63
2019-05-31T00:13:43.709Z,14.58
2019-05-31T00:17:03.460Z,14.60
2019-05-31T00:20:28.611Z,14.62
2019-05-31T00:23:47.867Z,14.60
2019-05-31T00:26:56.362Z,14.51
2019-05-31T00:30:05.274Z,14.45
2019-05-31T00:33:12.958Z,14.42
2019-05-31T00:36:32.473Z,14.39
2019-05-31T00:39:39.772Z,14.38
2019-05-31T00:42:59.203Z,14.35
2019-05-31T00:46:06.952Z,14.35
2019-05-31T00:49:14.219Z,14.32
2019-05-31T00:52:21.545Z,14.26
2019-05-31T00:55:29.078Z,14.28
2019-05-31T00:58:36.329Z,14.27
2019-05-31T01:01:42.536Z,14.29
2019-05-31T01:05:01.098Z,14.32
2019-05-31T01:08:19.569Z,14.28
2019-05-31T01:11:26.863Z,14.25
2019-05-31T01:14:49.784Z,14.31
2019-05-31T01:18:08.512Z,14.33
2019-05-31T01:21:15.976Z,14.29
2019-05-31T01:24:35.568Z,14.34
2019-05-31T01:27:54.437Z,14.34
2019-05-31T01:41:34.417Z,14.36
2019-05-31T01:45:07.786Z,14.38
2019-05-31T01:48:03.326Z,14.34
2019-05-31T01:51:11.844Z,14.37
2019-05-31T01:54:20.485Z,14.38
2019-05-31T01:57:47.027Z,14.42
2019-05-31T02:01:07.559Z,14.42
2019-05-31T02:04:14.501Z,14.40
2019-05-31T02:07:20.959Z,14.41
2019-05-31T02:10:27.416Z,14.43
2019-05-31T02:13:33.914Z,14.46
2019-05-31T02:16:40.528Z,14.51
2019-05-31T02:19:47.331Z,14.53
2019-05-31T02:22:54.083Z,14.57
2019-05-31T02:26:00.607Z,14.61
2019-05-31T02:29:07.456Z,14.63
2019-05-31T02:32:16.031Z,14.67
2019-05-31T02:35:22.404Z,14.68
2019-05-31T02:38:29.157Z,14.70
2019-05-31T02:41:35.753Z,14.73
2019-05-31T02:44:42.299Z,14.75
2019-05-31T02:48:07.735Z,14.81
2019-05-31T02:51:16.911Z,14.77
2019-05-31T02:54:24.066Z,14.79
2019-05-31T02:57:33.134Z,14.85
2019-05-31T03:00:40.450Z,14.83
2019-05-31T03:03:49.595Z,14.88
2019-05-31T03:07:18.632Z,14.87
2019-05-31T03:10:25.885Z,14.88
2019-05-31T03:13:33.574Z,14.89
2019-05-31T03:16:40.863Z,14.87
2019-05-31T03:19:48.364Z,14.92
2019-05-31T03:24:00.224Z,14.97
2019-05-31T03:48:59.663Z,15.05
2019-05-31T03:52:05.970Z,15.03
2019-05-31T03:55:15.441Z,15.02
2019-05-31T03:58:27.651Z,15.05
2019-05-31T04:01:41.827Z,15.04
2019-05-31T04:04:48.173Z,15.08
2019-05-31T04:07:55.408Z,15.07
2019-05-31T04:11:04.986Z,15.10
2019-05-31T04:14:11.888Z,15.12
2019-05-31T04:17:19.463Z,15.10
2019-05-31T04:20:26.769Z,15.08
2019-05-31T04:23:34.183Z,15.12
2019-05-31T04:26:41.685Z,15.14
2019-05-31T04:29:48.985Z,15.16
2019-05-31T04:32:56.639Z,15.14
2019-05-31T04:36:22.164Z,15.23
2019-05-31T04:39:41.467Z,15.29
2019-05-31T04:42:48.660Z,15.24
2019-05-31T04:45:56.024Z,15.29
2019-05-31T04:49:16.125Z,15.35
2019-05-31T04:52:24.701Z,15.37
2019-05-31T04:55:32.611Z,15.37
2019-05-31T04:58:39.991Z,15.36
2019-05-31T05:01:47.164Z,15.37
2019-05-31T05:04:54.378Z,15.37
2019-05-31T05:08:20.642Z,15.43
2019-05-31T05:11:27.940Z,15.42
2019-05-31T05:14:35.141Z,15.43
2019-05-31T05:17:42.383Z,15.43
2019-05-31T05:20:49.590Z,15.46
2019-05-31T05:23:56.900Z,15.54
2019-05-31T05:27:04.154Z,15.57
2019-05-31T05:30:11.489Z,15.55
2019-05-31T05:33:19.843Z,15.57
2019-05-31T05:36:28.638Z,15.60
2019-05-31T05:39:35.904Z,15.60
2019-05-31T05:42:43.218Z,15.66
2019-05-31T05:45:50.543Z,15.66
2019-05-31T05:48:57.911Z,15.68
2019-05-31T05:52:05.265Z,15.73
2019-05-31T05:55:13.132Z,15.72
2019-05-31T05:58:21.282Z,15.77
2019-05-31T06:01:29.469Z,15.82
2019-05-31T06:04:37.027Z,15.82
2019-05-31T06:07:44.431Z,15.85
2019-05-31T06:10:51.639Z,15.90
2019-05-31T06:13:58.533Z,15.94
2019-05-31T06:17:05.847Z,16.05
2019-05-31T06:20:13.422Z,16.05
2019-05-31T06:23:32.802Z,16.12
2019-05-31T06:26:57.303Z,16.14
2019-05-31T06:30:05.760Z,16.24
2019-05-31T06:33:13.137Z,16.27
2019-05-31T06:36:20.478Z,16.23
2019-05-31T06:39:28.901Z,16.23
2019-05-31T06:42:36.983Z,16.37
2019-05-31T06:45:44.459Z,16.39
2019-05-31T06:48:51.708Z,16.44
2019-05-31T06:51:59.040Z,16.51
2019-05-31T06:55:06.847Z,16.55
2019-05-31T06:58:14.135Z,16.62
2019-05-31T07:01:21.754Z,16.66
2019-05-31T07:04:29.895Z,16.69
2019-05-31T07:07:42.169Z,16.70
2019-05-31T07:10:47.084Z,16.71
2019-05-31T07:13:54.373Z,16.75
2019-05-31T07:17:01.649Z,16.78
2019-05-31T07:20:09.212Z,16.83
2019-05-31T07:23:30.931Z,16.82
2019-05-31T07:26:39.059Z,16.91
2019-05-31T07:29:46.470Z,16.91
2019-05-31T07:32:53.672Z,17.07
2019-05-31T07:36:00.864Z,17.07
2019-05-31T07:39:08.523Z,17.20
2019-05-31T07:42:28.015Z,17.27
2019-05-31T07:45:35.426Z,17.29
2019-05-31T07:49:07.455Z,17.44
2019-05-31T07:52:27.960Z,17.54
2019-05-31T07:55:52.824Z,17.60
2019-05-31T07:59:17.937Z,17.66
2019-05-31T08:02:26.480Z,17.66
2019-05-31T08:05:33.880Z,17.66
2019-05-31T08:08:53.747Z,17.78
2019-05-31T08:12:00.996Z,17.79
2019-05-31T08:15:27.275Z,17.88
2019-05-31T08:18:37.695Z,17.95
2019-05-31T08:21:42.732Z,18.01
2019-05-31T08:24:48.547Z,18.09
2019-05-31T08:27:55.704Z,18.16
2019-05-31T08:31:02.957Z,18.25
2019-05-31T08:34:10.433Z,18.32
2019-05-31T08:37:17.762Z,18.38
2019-05-31T08:40:26.494Z,18.45
2019-05-31T08:43:35.267Z,18.52
2019-05-31T08:46:42.792Z,18.59
2019-05-31T08:49:50.142Z,18.68
2019-05-31T08:52:59.288Z,18.75
2019-05-31T08:56:18.329Z,18.91
2019-05-31T08:59:38.103Z,19.02
2019-05-31T09:02:45.646Z,19.05
2019-05-31T09:05:53.105Z,19.15
2019-05-31T09:09:00.397Z,19.24
2019-05-31T09:12:07.749Z,19.35
2019-05-31T09:15:15.496Z,19.42
2019-05-31T09:18:39.949Z,19.55
2019-05-31T09:21:47.250Z,19.60
2019-05-31T09:24:53.111Z,19.69
2019-05-31T09:28:11.838Z,19.87
2019-05-31T09:31:38.324Z,19.95
2019-05-31T09:35:02.878Z,20.10
2019-05-31T09:38:27.843Z,20.14
2019-05-31T09:41:38.959Z,20.17
2019-05-31T09:44:44.423Z,20.43
2019-05-31T09:47:51.680Z,20.82
2019-05-31T09:50:58.925Z,21.07
2019-05-31T09:54:06.180Z,21.02
2019-05-31T09:57:13.500Z,20.99
2019-05-31T10:00:21.037Z,21.05
2019-05-31T10:03:28.338Z,21.05
2019-05-31T10:06:36.452Z,21.06
2019-05-31T10:09:43.910Z,21.07
2019-05-31T10:12:51.496Z,21.09
2019-05-31T10:15:59.138Z,21.10
2019-05-31T10:19:06.489Z,21.14
2019-05-31T10:22:12.233Z,21.11
2019-05-31T10:25:33.990Z,21.19
2019-05-31T10:28:58.659Z,21.29
2019-05-31T10:32:22.914Z,21.28
2019-05-31T10:35:30.167Z,21.33
2019-05-31T10:38:48.877Z,21.38
2019-05-31T10:42:19.259Z,21.47
2019-05-31T10:45:28.171Z,21.42
2019-05-31T10:48:36.242Z,21.32
2019-05-31T10:51:44.532Z,21.34
2019-05-31T10:54:51.874Z,21.22
2019-05-31T10:57:59.330Z,21.13
2019-05-31T11:01:06.588Z,21.10
2019-05-31T11:04:12.900Z,21.00
2019-05-31T11:07:20.337Z,20.93
2019-05-31T11:10:40.252Z,20.88
2019-05-31T11:14:06.396Z,20.83
2019-05-31T11:17:25.773Z,20.76
2019-05-31T11:20:59.751Z,20.75
2019-05-31T11:24:15.323Z,20.75
2019-05-31T11:27:40.016Z,20.78
2019-05-31T11:31:06.005Z,20.78
2019-05-31T11:34:13.333Z,20.73
2019-05-31T11:37:39.101Z,20.78
2019-05-31T11:40:47.570Z,20.70
2019-05-31T11:44:06.138Z,20.74
2019-05-31T11:47:24.314Z,20.71
2019-05-31T11:50:31.605Z,20.58
2019-05-31T11:53:56.819Z,20.62
2019-05-31T11:57:22.036Z,20.53
2019-05-31T12:00:29.423Z,20.48
2019-05-31T12:03:37.214Z,20.48
2019-05-31T12:06:46.194Z,20.34
2019-05-31T12:09:53.504Z,20.29
2019-05-31T12:13:00.784Z,20.33
2019-05-31T12:16:08.029Z,20.34
2019-05-31T12:19:15.429Z,20.27
2019-05-31T12:22:22.735Z,20.25
2019-05-31T12:25:29.344Z,20.22
2019-05-31T12:28:36.782Z,20.13
2019-05-31T12:31:45.950Z,20.07
2019-05-31T12:34:53.254Z,20.08
2019-05-31T12:38:13.005Z,20.06
2019-05-31T12:41:20.632Z,19.97
2019-05-31T12:44:28.037Z,19.96
2019-05-31T12:47:35.368Z,19.98
2019-05-31T12:50:42.869Z,20.02
2019-05-31T12:53:50.201Z,20.07
2019-05-31T12:56:57.474Z,20.15
2019-05-31T13:00:04.137Z,20.24
2019-05-31T13:03:11.477Z,20.32
2019-05-31T13:06:18.746Z,20.44
2019-05-31T13:09:25.967Z,20.49
2019-05-31T13:12:33.256Z,20.62
2019-05-31T13:15:40.457Z,20.70
2019-05-31T13:18:47.772Z,20.77
2019-05-31T13:21:55.066Z,20.88
2019-05-31T13:25:02.454Z,20.95
2019-05-31T13:28:09.826Z,21.03
2019-05-31T13:31:17.030Z,21.04
2019-05-31T13:34:36.322Z,21.14
2019-05-31T13:37:43.574Z,21.15
2019-05-31T13:41:02.816Z,21.11
2019-05-31T13:44:10.000Z,21.11
2019-05-31T13:47:17.321Z,21.20
2019-05-31T13:50:36.506Z,21.31
2019-05-31T13:53:59.212Z,21.28
2019-05-31T13:57:15.891Z,21.26
2019-05-31T14:00:22.207Z,21.22
2019-05-31T14:03:29.504Z,21.28
2019-05-31T14:06:37.116Z,21.29
2019-05-31T14:09:44.341Z,21.32
2019-05-31T14:12:52.355Z,21.34
2019-05-31T14:15:59.585Z,21.34
2019-05-31T14:19:14.986Z,21.27
2019-05-31T14:22:32.298Z,21.34
2019-05-31T14:25:24.958Z,21.35
2019-05-31T14:28:32.383Z,21.36
2019-05-31T14:31:39.528Z,21.33
2019-05-31T14:34:46.705Z,21.25
2019-05-31T14:37:54.237Z,21.16
2019-05-31T14:41:19.670Z,21.15
2019-05-31T14:44:26.989Z,21.05
2019-05-31T14:47:45.231Z,21.06
2019-05-31T14:51:04.531Z,21.00
2019-05-31T14:54:11.950Z,20.89
2019-05-31T14:57:36.539Z,20.87
2019-05-31T15:00:43.339Z,20.77
2019-05-31T15:03:51.277Z,20.70
2019-05-31T15:06:59.720Z,20.60
2019-05-31T15:10:19.451Z,20.66
2019-05-31T15:13:26.922Z,20.56
2019-05-31T15:16:52.068Z,20.54
2019-05-31T15:20:17.150Z,20.53
2019-05-31T15:23:35.402Z,20.53
2019-05-31T15:26:45.261Z,20.53
2019-05-31T15:30:04.656Z,20.57
2019-05-31T15:34:10.463Z,20.52
2019-05-31T15:37:16.966Z,20.45
2019-05-31T15:40:27.068Z,20.49
2019-05-31T15:43:34.641Z,20.60
2019-05-31T15:46:41.972Z,20.60
2019-05-31T15:49:49.411Z,20.62
2019-05-31T15:53:06.315Z,20.63
2019-05-31T15:56:05.545Z,20.63
2019-05-31T15:59:13.018Z,20.67
2019-05-31T16:02:24.527Z,20.69
2019-05-31T16:05:28.615Z,20.67
2019-05-31T16:08:35.908Z,20.69
2019-05-31T16:11:44.369Z,20.63
2019-05-31T16:14:51.745Z,20.63
2019-05-31T16:17:59.129Z,20.57
2019-05-31T16:21:07.616Z,20.54
2019-05-31T16:24:18.757Z,20.55
2019-05-31T16:27:24.268Z,20.52
2019-05-31T16:30:31.625Z,20.46
2019-05-31T16:33:58.015Z,20.48
2019-05-31T16:37:04.907Z,20.38
2019-05-31T16:40:12.396Z,20.34
2019-05-31T16:43:18.714Z,20.33
2019-05-31T16:46:37.647Z,20.37
2019-05-31T16:49:56.823Z,20.33
2019-05-31T16:53:07.535Z,20.28
2019-05-31T16:56:14.760Z,20.22
2019-05-31T16:59:24.690Z,20.18
2019-05-31T17:02:29.424Z,20.13
2019-05-31T17:05:36.789Z,20.08
2019-05-31T17:08:44.299Z,20.01
2019-05-31T17:12:10.304Z,20.02
2019-05-31T17:15:18.004Z,19.94
2019-05-31T17:18:25.281Z,19.95
2019-05-31T17:21:32.464Z,19.91
2019-05-31T17:24:51.693Z,19.89
2019-05-31T17:27:59.225Z,19.84
2019-05-31T17:31:18.670Z,19.84
2019-05-31T17:34:41.414Z,19.71
2019-05-31T17:37:52.538Z,19.74
2019-05-31T17:41:11.677Z,19.69
2019-05-31T17:44:41.350Z,19.60
2019-05-31T17:47:48.768Z,19.49
2019-05-31T17:51:08.023Z,19.49
2019-05-31T17:54:27.022Z,19.42
2019-05-31T17:57:51.930Z,19.36
2019-05-31T18:01:17.664Z,19.31
2019-05-31T18:04:36.919Z,19.27
2019-05-31T18:07:42.488Z,19.17
2019-05-31T18:10:48.720Z,19.09
2019-05-31T18:13:56.081Z,19.10
2019-05-31T18:17:03.269Z,19.06
2019-05-31T18:20:10.829Z,19.01
2019-05-31T18:23:18.449Z,19.00
2019-05-31T18:26:25.690Z,18.95
2019-05-31T18:29:51.002Z,18.91
2019-05-31T18:32:58.259Z,18.86
2019-05-31T18:36:23.573Z,18.85
2019-05-31T18:39:48.692Z,18.84
2019-05-31T18:42:56.005Z,18.74
2019-05-31T18:46:16.930Z,18.73
2019-05-31T18:49:24.470Z,18.66
2019-05-31T18:52:31.696Z,18.58
2019-05-31T18:55:43.568Z,18.55
2019-05-31T18:58:48.095Z,18.48
2019-05-31T19:01:55.366Z,18.41
2019-05-31T19:05:02.597Z,18.36
2019-05-31T19:08:10.785Z,18.28
2019-05-31T19:11:19.227Z,18.26
2019-05-31T19:14:26.579Z,18.19
2019-05-31T19:17:34.151Z,18.15
2019-05-31T19:20:57.181Z,18.08
2019-05-31T19:24:08.799Z,18.03
2019-05-31T19:27:27.630Z,17.97
2019-05-31T19:30:52.308Z,17.90
2019-05-31T19:34:22.264Z,17.81
2019-05-31T19:37:47.879Z,17.72
2019-05-31T19:41:06.228Z,17.66
2019-05-31T19:44:24.802Z,17.53
2019-05-31T19:47:49.873Z,17.47
2019-05-31T19:51:15.756Z,17.40
2019-05-31T19:54:40.826Z,17.32
2019-05-31T19:58:06.228Z,17.26
2019-05-31T20:01:12.393Z,17.10
2019-05-31T20:04:18.725Z,17.06
2019-05-31T20:07:26.314Z,16.95
2019-05-31T20:10:51.436Z,16.95
2019-05-31T20:13:58.751Z,16.85
2019-05-31T20:17:19.479Z,16.82
2019-05-31T20:20:39.317Z,16.77
2019-05-31T20:23:58.107Z,16.69
2019-05-31T20:27:20.752Z,16.64
2019-05-31T20:30:44.096Z,16.58
2019-05-31T20:33:51.416Z,16.51
2019-05-31T20:37:10.892Z,16.49
2019-05-31T20:40:32.278Z,16.43
2019-05-31T20:43:37.276Z,16.31
2019-05-31T20:46:44.586Z,16.26
2019-05-31T20:50:06.021Z,16.32
2019-05-31T20:53:13.655Z,16.26
2019-05-31T20:56:21.829Z,16.27
2019-05-31T20:59:47.093Z,16.27
2019-05-31T21:02:54.372Z,16.23
2019-05-31T21:06:13.579Z,16.17
2019-05-31T21:09:35.558Z,16.10
2019-05-31T21:12:54.601Z,16.05
2019-05-31T21:16:01.894Z,15.94
2019-05-31T21:19:28.343Z,15.83
2019-05-31T21:22:35.843Z,15.83
2019-05-31T21:25:43.128Z,15.76
2019-05-31T21:28:53.234Z,15.76
2019-05-31T21:32:17.391Z,15.77
2019-05-31T21:35:36.469Z,15.75
2019-05-31T21:38:43.765Z,15.69
2019-05-31T21:42:08.499Z,15.72
2019-05-31T21:45:34.701Z,15.63
2019-05-31T21:48:42.191Z,15.63
2019-05-31T21:51:48.335Z,15.63
2019-05-31T21:55:13.471Z,15.64
2019-05-31T21:58:38.193Z,15.62
2019-05-31T22:01:45.480Z,15.51
2019-05-31T22:04:52.029Z,15.51
2019-05-31T22:07:57.693Z,15.48
2019-05-31T22:11:05.160Z,15.50
2019-05-31T22:14:12.408Z,15.38
2019-05-31T22:17:19.718Z,15.38
2019-05-31T22:20:45.084Z,15.42
2019-05-31T22:23:52.271Z,15.37
2019-05-31T22:26:58.041Z,15.33
2019-05-31T22:30:57.989Z,15.37
2019-05-31T22:34:05.331Z,15.31
2019-05-31T22:37:12.871Z,15.30
2019-05-31T22:40:20.212Z,15.28
2019-05-31T22:43:27.407Z,15.28
2019-05-31T22:46:34.730Z,15.28
2019-05-31T22:49:41.936Z,15.26
2019-05-31T22:52:49.129Z,15.26
2019-05-31T22:55:56.524Z,15.25
2019-05-31T22:59:15.619Z,15.27
2019-05-31T23:02:40.867Z,15.27
2019-05-31T23:05:48.208Z,15.22
2019-05-31T23:09:08.074Z,15.24
2019-05-31T23:12:15.352Z,15.19
2019-05-31T23:15:22.628Z,15.15
2019-05-31T23:18:28.315Z,15.15
2019-05-31T23:21:35.576Z,15.14
2019-05-31T23:24:43.765Z,15.12
2019-05-31T23:27:51.252Z,15.09
2019-05-31T23:30:58.639Z,15.07
2019-05-31T23:34:06.159Z,15.08
2019-05-31T23:37:13.446Z,15.06
2019-05-31T23:40:20.852Z,15.03
2019-05-31T23:43:28.234Z,14.99
2019-05-31T23:46:34.903Z,14.94
2019-05-31T23:49:43.263Z,14.91
2019-05-31T23:52:50.651Z,14.87
2019-05-31T23:55:57.937Z,14.85
2019-05-31T23:59:05.264Z,14.77
